Time;durP1;ratioP1;P1;durP2;ratioP2;P2;SDS_P1;SDS_P2;PMS_P1;PMS_P2;Temp;Humidity;BMP_temperature;BMP_pressure;BME280_temperature;BME280_humidity;BME280_pressure;Samples;Min_cycle;Max_cycle;Signal;HPM_P1;HPM_P2
2023/04/05 00:02:23;;;;;;;19.90;18.00;;;0.00;78.60;;;;;;4996723;28;20180;-91
2023/04/05 00:04:53;;;;;;;19.30;17.23;;;0.10;78.70;;;;;;4995290;28;20194;-90
2023/04/05 00:07:20;;;;;;;19.80;17.70;;;0.00;78.80;;;;;;4996918;28;20165;-91
2023/04/05 00:09:46;;;;;;;20.70;18.47;;;0.00;78.70;;;;;;4996806;28;20247;-91
2023/04/05 00:12:12;;;;;;;19.63;17.90;;;0.00;78.70;;;;;;4997681;28;20208;-91
2023/04/05 00:14:37;;;;;;;20.30;17.40;;;0.00;78.80;;;;;;4996041;28;20248;-91
2023/04/05 00:17:03;;;;;;;19.37;17.57;;;0.00;78.80;;;;;;4996438;28;20173;-91
2023/04/05 00:19:32;;;;;;;18.50;16.77;;;0.00;78.80;;;;;;4997533;28;20171;-88
2023/04/05 00:21:58;;;;;;;20.43;18.40;;;0.00;78.70;;;;;;4996399;28;20179;-91
2023/04/05 00:24:24;;;;;;;19.87;17.90;;;0.00;78.60;;;;;;4997620;28;20199;-91
2023/04/05 00:26:50;;;;;;;22.83;18.67;;;0.00;78.50;;;;;;4995067;28;20194;-91
2023/04/05 00:29:15;;;;;;;19.20;17.20;;;0.00;78.40;;;;;;4996474;28;20176;-91
2023/04/05 00:31:41;;;;;;;20.53;18.73;;;0.00;78.40;;;;;;4994956;28;20194;-91
2023/04/05 00:34:08;;;;;;;20.67;18.63;;;0.00;78.30;;;;;;4995975;28;20250;-91
2023/04/05 00:36:34;;;;;;;19.70;18.00;;;0.00;78.20;;;;;;4995912;28;20221;-90
2023/04/05 00:39:00;;;;;;;22.27;19.90;;;0.00;78.00;;;;;;4996505;28;20176;-90
2023/04/05 00:41:25;;;;;;;20.93;19.00;;;0.00;77.80;;;;;;4995991;28;20173;-90
2023/04/05 00:43:51;;;;;;;21.33;19.40;;;0.00;77.60;;;;;;4994548;28;20176;-90
2023/04/05 00:46:16;;;;;;;20.77;18.80;;;0.00;77.30;;;;;;4995836;28;20549;-90
2023/04/05 00:48:42;;;;;;;21.47;19.30;;;0.00;77.30;;;;;;4994052;28;20575;-90
2023/04/05 00:51:10;;;;;;;21.43;19.33;;;0.00;77.50;;;;;;4994597;28;20189;-90
2023/04/05 00:53:36;;;;;;;21.77;19.67;;;-0.10;77.60;;;;;;4995711;28;20173;-90
2023/04/05 00:56:02;;;;;;;22.53;20.27;;;-0.10;77.70;;;;;;4995601;28;20205;-90
2023/04/05 00:58:29;;;;;;;21.63;19.63;;;-0.20;77.60;;;;;;4994366;28;20186;-90
2023/04/05 01:01:21;;;;;;;22.03;19.80;;;-0.10;77.60;;;;;;4995607;28;20175;-90
2023/04/05 01:03:58;;;;;;;21.43;19.33;;;-0.20;77.50;;;;;;4994986;28;20174;-90
2023/04/05 01:06:43;;;;;;;23.27;19.73;;;-0.20;77.80;;;;;;4995606;28;20191;-89
2023/04/05 01:09:23;;;;;;;23.87;18.50;;;-0.20;77.90;;;;;;4995430;28;20165;-90
2023/04/05 01:11:52;;;;;;;21.20;19.10;;;-0.30;77.70;;;;;;4994234;28;20264;-89
2023/04/05 01:14:18;;;;;;;21.93;19.80;;;-0.30;77.80;;;;;;4995232;28;20578;-90
2023/04/05 01:16:44;;;;;;;20.30;18.20;;;-0.30;77.80;;;;;;4995277;28;20181;-89
2023/04/05 01:19:12;;;;;;;21.10;19.27;;;-0.30;78.00;;;;;;4993926;28;20184;-90
2023/04/05 01:21:57;;;;;;;21.60;19.60;;;-0.30;77.90;;;;;;4995204;28;20204;-89
2023/04/05 01:25:05;;;;;;;21.93;19.83;;;-0.30;77.80;;;;;;4993904;28;20205;-89
2023/04/05 01:28:02;;;;;;;22.70;20.47;;;-0.30;77.50;;;;;;4965363;28;20266;-89
2023/04/05 01:30:39;;;;;;;22.83;20.50;;;-0.30;77.40;;;;;;4993838;28;20551;-90
2023/04/05 01:33:24;;;;;;;22.90;20.80;;;-0.40;77.20;;;;;;4993858;28;20176;-90
2023/04/05 01:36:26;;;;;;;23.63;21.40;;;-0.50;77.20;;;;;;4993924;28;20295;-89
2023/04/05 01:38:53;;;;;;;22.90;20.80;;;-0.50;77.20;;;;;;4972115;28;20721;-89
2023/04/05 01:41:20;;;;;;;22.90;20.80;;;-0.50;77.20;;;;;;4994782;28;20197;-89
2023/04/05 01:43:46;;;;;;;26.87;20.40;;;-0.50;77.50;;;;;;4994297;28;20177;-89
2023/04/05 01:46:11;;;;;;;20.10;18.20;;;-0.60;77.70;;;;;;4994684;28;20201;-89
2023/04/05 01:48:37;;;;;;;21.33;19.47;;;-0.60;77.90;;;;;;4994583;28;20231;-90
2023/04/05 01:51:02;;;;;;;21.37;19.37;;;-0.60;78.00;;;;;;4993615;28;20222;-89
2023/04/05 01:53:29;;;;;;;21.93;19.93;;;-0.50;77.90;;;;;;4994163;28;20279;-90
2023/04/05 01:55:59;;;;;;;20.17;18.27;;;-0.60;77.80;;;;;;4993466;28;20211;-89
2023/04/05 01:58:25;;;;;;;21.87;19.77;;;-0.60;77.80;;;;;;4994076;28;20180;-90
2023/04/05 02:00:55;;;;;;;21.03;19.23;;;-0.70;78.00;;;;;;4993456;28;20185;-90
2023/04/05 02:03:23;;;;;;;21.97;20.13;;;-0.70;78.20;;;;;;4993263;28;20172;-89
2023/04/05 02:05:48;;;;;;;21.27;18.77;;;-0.70;78.10;;;;;;4994279;28;20750;-90
2023/04/05 02:08:14;;;;;;;20.73;18.73;;;-0.70;78.30;;;;;;4994175;28;20267;-90
2023/04/05 02:10:40;;;;;;;20.53;18.73;;;-0.70;78.90;;;;;;4993188;28;20186;-89
2023/04/05 02:13:06;;;;;;;19.27;17.60;;;-0.80;79.10;;;;;;4994298;28;20640;-89
2023/04/05 02:15:34;;;;;;;20.17;18.10;;;-1.00;79.60;;;;;;4994085;28;20208;-89
2023/04/05 02:18:02;;;;;;;23.70;17.73;;;-1.20;80.00;;;;;;4993021;28;20263;-89
2023/04/05 02:20:28;;;;;;;19.10;16.77;;;-1.30;80.60;;;;;;4992911;28;20186;-89
2023/04/05 02:22:54;;;;;;;17.57;15.70;;;-1.30;81.10;;;;;;4993471;28;20183;-90
2023/04/05 02:25:20;;;;;;;16.33;14.83;;;-1.30;81.40;;;;;;4992821;28;20208;-90
2023/04/05 02:27:46;;;;;;;16.23;14.53;;;-1.30;81.60;;;;;;4993159;28;20288;-89
2023/04/05 02:30:14;;;;;;;19.97;14.67;;;-1.20;81.80;;;;;;4992707;28;20194;-90
2023/04/05 02:32:44;;;;;;;16.97;15.27;;;-1.20;81.70;;;;;;4993845;28;20236;-89
2023/04/05 02:35:10;;;;;;;19.97;16.20;;;-1.20;81.90;;;;;;4993124;28;20269;-89
2023/04/05 02:37:36;;;;;;;17.30;14.77;;;-1.20;82.00;;;;;;4994019;28;20171;-89
2023/04/05 02:40:05;;;;;;;16.70;13.93;;;-1.20;82.00;;;;;;4994055;28;20206;-89
2023/04/05 02:42:30;;;;;;;19.03;14.20;;;-1.20;82.00;;;;;;4992895;28;20288;-89
2023/04/05 02:44:56;;;;;;;16.67;14.87;;;-1.20;81.90;;;;;;4992790;28;20342;-89
2023/04/05 02:47:21;;;;;;;17.13;15.30;;;-1.20;81.80;;;;;;4992588;28;20180;-89
2023/04/05 02:49:47;;;;;;;17.43;15.63;;;-1.20;81.60;;;;;;4992624;28;20175;-90
2023/04/05 02:52:13;;;;;;;20.77;15.07;;;-1.20;81.30;;;;;;4993408;28;20182;-89
2023/04/05 02:54:39;;;;;;;17.93;15.13;;;-1.20;81.20;;;;;;4992341;28;20217;-90
2023/04/05 02:57:05;;;;;;;17.00;15.30;;;-1.20;81.20;;;;;;4993710;28;20565;-89
2023/04/05 02:59:30;;;;;;;23.33;15.07;;;-1.20;81.20;;;;;;4992823;28;20175;-89
2023/04/05 03:01:56;;;;;;;16.77;14.97;;;-1.20;81.10;;;;;;4992435;28;20217;-90
2023/04/05 03:04:21;;;;;;;17.33;15.63;;;-1.30;81.00;;;;;;4992324;28;20200;-90
2023/04/05 03:06:49;;;;;;;17.33;15.57;;;-1.20;80.90;;;;;;4994014;28;20172;-90
2023/04/05 03:09:15;;;;;;;19.00;16.10;;;-1.20;80.70;;;;;;4993939;28;20163;-90
2023/04/05 03:11:41;;;;;;;17.73;15.83;;;-1.30;80.50;;;;;;4993347;28;20229;-90
2023/04/05 03:14:06;;;;;;;17.43;15.67;;;-1.30;80.30;;;;;;4997421;28;20211;-90
2023/04/05 03:16:33;;;;;;;19.87;16.23;;;-1.30;80.30;;;;;;4997012;28;20187;-90
2023/04/05 03:18:58;;;;;;;17.87;15.93;;;-1.30;80.20;;;;;;4996559;28;20207;-90
2023/04/05 03:21:25;;;;;;;23.20;16.50;;;-1.30;80.20;;;;;;4997462;28;20595;-90
2023/04/05 03:23:50;;;;;;;23.30;16.37;;;-1.50;80.30;;;;;;4997689;28;20547;-90
2023/04/05 03:26:16;;;;;;;17.13;15.33;;;-1.50;80.70;;;;;;4997127;28;20187;-90
2023/04/05 03:28:44;;;;;;;21.97;16.80;;;-1.50;80.90;;;;;;4996346;28;20173;-90
2023/04/05 03:31:13;;;;;;;23.67;16.93;;;-1.50;80.90;;;;;;4996244;28;20314;-90
2023/04/05 03:33:38;;;;;;;24.23;16.00;;;-1.50;81.10;;;;;;4996049;28;20178;-90
2023/04/05 03:36:04;;;;;;;23.00;16.33;;;-1.50;81.00;;;;;;4995746;28;20700;-90
2023/04/05 03:38:31;;;;;;;17.93;16.07;;;-1.50;81.10;;;;;;4995887;28;20180;-90
2023/04/05 03:40:57;;;;;;;20.90;15.37;;;-1.50;81.30;;;;;;4995876;28;20181;-90
2023/04/05 03:43:22;;;;;;;17.53;15.67;;;-1.60;81.50;;;;;;4995863;28;20270;-90
2023/04/05 03:45:48;;;;;;;18.87;15.00;;;-1.50;81.70;;;;;;4995913;28;20578;-89
2023/04/05 03:48:18;;;;;;;24.07;16.00;;;-1.50;82.50;;;;;;4996551;28;20262;-90
2023/04/05 03:50:44;;;;;;;18.30;15.33;;;-1.40;83.40;;;;;;4995663;28;20175;-90
2023/04/05 03:53:10;;;;;;;20.27;16.83;;;-1.40;83.90;;;;;;4995594;28;20193;-90
2023/04/05 03:55:35;;;;;;;18.13;16.07;;;-1.50;84.20;;;;;;4995428;28;20301;-90
2023/04/05 03:58:01;;;;;;;20.93;16.63;;;-1.50;84.30;;;;;;4995523;28;20213;-89
2023/04/05 04:00:27;;;;;;;23.83;17.10;;;-1.60;84.50;;;;;;4996714;28;20547;-89
2023/04/05 04:02:52;;;;;;;21.03;17.17;;;-1.60;84.70;;;;;;4995453;28;20274;-90
2023/04/05 04:05:19;;;;;;;20.77;18.03;;;-1.60;84.90;;;;;;4995371;28;20688;-90
2023/04/05 04:07:46;;;;;;;21.20;17.57;;;-1.50;85.20;;;;;;4995673;28;20191;-90
2023/04/05 04:10:18;;;;;;;21.30;16.73;;;-1.50;85.40;;;;;;4995558;28;20242;-90
2023/04/05 04:12:44;;;;;;;22.73;17.97;;;-1.50;85.50;;;;;;4995901;28;20174;-89
2023/04/05 04:15:10;;;;;;;20.50;17.30;;;-1.50;85.40;;;;;;4995160;28;20217;-90
2023/04/05 04:17:36;;;;;;;21.43;17.07;;;-1.40;85.30;;;;;;4995329;28;20262;-90
2023/04/05 04:20:08;;;;;;;21.10;16.80;;;-1.40;85.00;;;;;;4995238;28;20180;-90
2023/04/05 04:22:37;;;;;;;21.80;17.53;;;-1.40;84.90;;;;;;4996036;28;20158;-90
2023/04/05 04:25:04;;;;;;;20.27;16.57;;;-1.30;84.80;;;;;;4994389;28;20209;-89
2023/04/05 04:27:34;;;;;;;19.03;15.73;;;-1.30;84.50;;;;;;4995406;28;20575;-90
2023/04/05 04:30:03;;;;;;;20.80;17.40;;;-1.30;84.60;;;;;;4995075;28;20183;-90
2023/04/05 04:35:19;;;;;;;21.57;17.17;;;-1.30;84.50;;;;;;4996395;28;20574;-90
2023/04/05 04:37:45;;;;;;;23.07;19.37;;;-1.20;84.80;;;;;;4994888;28;20167;-90
2023/04/05 04:40:16;;;;;;;23.83;20.27;;;-1.20;85.10;;;;;;4995527;28;20170;-90
2023/04/05 04:42:45;;;;;;;24.37;20.60;;;-1.20;85.10;;;;;;4996305;28;20242;-91
2023/04/05 04:45:12;;;;;;;29.10;20.33;;;-1.20;85.10;;;;;;4994522;28;20664;-91
2023/04/05 04:47:37;;;;;;;24.80;19.57;;;-1.20;85.10;;;;;;4996032;28;20551;-90
2023/04/05 04:50:03;;;;;;;26.80;20.20;;;-1.10;85.00;;;;;;4996220;28;20190;-90
2023/04/05 04:52:29;;;;;;;23.10;19.40;;;-1.10;84.90;;;;;;4995186;28;20266;-90
2023/04/05 04:54:55;;;;;;;21.57;18.27;;;-1.00;84.90;;;;;;4995583;28;20642;-90
2023/04/05 04:57:20;;;;;;;24.57;17.77;;;-0.80;84.90;;;;;;4994444;28;20176;-90
2023/04/05 04:59:46;;;;;;;26.47;16.27;;;-0.70;84.90;;;;;;4994722;28;20551;-90
2023/04/05 05:02:11;;;;;;;25.73;16.60;;;-0.70;84.90;;;;;;4994425;28;20669;-90
2023/04/05 05:04:37;;;;;;;26.30;17.33;;;-0.80;85.00;;;;;;4994344;28;20200;-90
2023/04/05 05:07:02;;;;;;;20.43;17.97;;;-0.90;85.00;;;;;;4994353;28;20184;-90
2023/04/05 05:09:28;;;;;;;19.30;17.30;;;-0.80;85.40;;;;;;4995486;28;20785;-90
2023/04/05 05:11:55;;;;;;;21.37;17.40;;;-0.70;85.70;;;;;;4994247;28;20699;-90
2023/04/05 05:14:21;;;;;;;20.87;16.33;;;-0.70;85.80;;;;;;4995107;28;20207;-90
2023/04/05 05:16:46;;;;;;;19.63;16.80;;;-0.70;85.80;;;;;;4994177;28;20186;-90
2023/04/05 05:19:12;;;;;;;18.60;15.53;;;-0.60;85.70;;;;;;4995260;28;20255;-90
2023/04/05 05:21:37;;;;;;;21.27;16.50;;;-0.60;85.80;;;;;;4994274;28;20188;-90
2023/04/05 05:24:06;;;;;;;20.73;16.63;;;-0.60;85.80;;;;;;4995134;28;20561;-90
2023/04/05 05:26:31;;;;;;;19.20;16.50;;;-0.60;85.80;;;;;;4995056;28;20675;-90
2023/04/05 05:29:00;;;;;;;29.53;17.63;;;-0.60;85.80;;;;;;4995076;28;20192;-90
2023/04/05 05:31:28;;;;;;;21.83;18.07;;;-0.50;85.70;;;;;;4993842;28;20195;-90
2023/04/05 05:33:53;;;;;;;21.97;15.30;;;-0.50;85.70;;;;;;4993606;28;20181;-90
2023/04/05 05:36:19;;;;;;;16.17;12.70;;;-0.30;86.00;;;;;;4994895;28;20287;-90
2023/04/05 05:38:45;;;;;;;21.97;15.40;;;-0.40;86.00;;;;;;4994931;28;20171;-90
2023/04/05 05:41:10;;;;;;;20.30;15.67;;;-0.50;86.30;;;;;;4994821;28;20592;-91
2023/04/05 05:43:36;;;;;;;25.83;15.13;;;-0.50;86.60;;;;;;4994851;28;20172;-90
2023/04/05 05:46:02;;;;;;;23.47;16.47;;;-0.60;86.70;;;;;;4994662;28;20207;-91
2023/04/05 05:48:28;;;;;;;25.47;17.67;;;-0.50;86.80;;;;;;4994878;28;20211;-91
2023/04/05 05:50:55;;;;;;;30.00;15.80;;;-0.40;87.00;;;;;;4993402;28;20263;-91
2023/04/05 05:53:20;;;;;;;28.27;17.73;;;-0.30;87.00;;;;;;4994837;28;20719;-91
2023/04/05 05:55:46;;;;;;;26.43;16.37;;;-0.20;87.10;;;;;;4994663;28;20281;-90
2023/04/05 05:58:11;;;;;;;25.83;15.87;;;-0.10;87.20;;;;;;4994502;28;20252;-91
2023/04/05 06:00:37;;;;;;;21.43;16.00;;;-0.10;87.10;;;;;;4993247;28;20171;-90
2023/04/05 06:03:04;;;;;;;25.50;16.00;;;-0.10;87.20;;;;;;4993302;28;20709;-91
2023/04/05 06:05:30;;;;;;;24.10;15.20;;;0.00;87.30;;;;;;4993193;28;20228;-91
2023/04/05 06:07:55;;;;;;;18.97;14.83;;;0.00;87.30;;;;;;4994388;28;20211;-91
2023/04/05 06:10:23;;;;;;;22.43;14.80;;;-0.10;87.20;;;;;;4994287;28;20203;-91
2023/04/05 06:12:49;;;;;;;26.13;15.73;;;0.00;87.40;;;;;;4993798;28;20196;-91
2023/04/05 06:15:15;;;;;;;24.93;16.07;;;0.00;87.40;;;;;;4992838;28;20275;-91
2023/04/05 06:17:41;;;;;;;21.40;15.23;;;-0.10;87.30;;;;;;4992932;28;20651;-90
2023/04/05 06:20:10;;;;;;;18.83;15.60;;;-0.10;87.40;;;;;;4994206;28;20165;-90
2023/04/05 06:22:36;;;;;;;23.47;15.73;;;0.00;87.40;;;;;;4994078;28;20171;-91
2023/04/05 06:25:02;;;;;;;18.70;14.37;;;0.10;87.60;;;;;;4994058;28;20214;-90
2023/04/05 06:27:27;;;;;;;25.73;14.50;;;0.20;87.60;;;;;;4994542;28;20699;-90
2023/04/05 06:29:54;;;;;;;19.40;15.07;;;0.10;87.50;;;;;;4992782;28;20190;-91
2023/04/05 06:32:20;;;;;;;21.40;13.53;;;0.10;87.60;;;;;;4992797;28;20176;-90
2023/04/05 06:34:47;;;;;;;21.67;13.60;;;0.00;87.80;;;;;;4993760;28;20293;-91
2023/04/05 06:37:13;;;;;;;28.10;14.40;;;0.00;87.90;;;;;;4993968;28;20173;-91
2023/04/05 06:39:39;;;;;;;17.07;13.87;;;0.00;88.00;;;;;;4992574;28;20605;-91
2023/04/05 06:42:04;;;;;;;20.27;14.63;;;0.10;88.10;;;;;;4993916;28;20172;-91
2023/04/05 06:44:30;;;;;;;20.73;15.33;;;0.10;88.20;;;;;;4992752;28;20573;-91
2023/04/05 06:46:55;;;;;;;24.57;16.00;;;0.20;88.20;;;;;;4993082;28;20608;-91
2023/04/05 06:49:21;;;;;;;21.50;16.27;;;0.30;88.20;;;;;;4992700;28;20204;-91
2023/04/05 06:51:47;;;;;;;22.07;14.07;;;0.40;88.30;;;;;;4994267;28;20185;-89
2023/04/05 06:54:12;;;;;;;24.80;15.27;;;0.50;88.20;;;;;;4993830;28;20190;-90
2023/04/05 06:56:38;;;;;;;19.80;15.17;;;0.60;88.30;;;;;;4992523;28;20228;-91
2023/04/05 06:59:03;;;;;;;18.70;15.53;;;0.80;88.30;;;;;;4992852;28;20701;-91
2023/04/05 07:01:29;;;;;;;18.03;14.73;;;0.80;88.30;;;;;;4993524;28;20188;-91
2023/04/05 07:03:55;;;;;;;16.53;14.33;;;0.90;88.30;;;;;;4993562;28;20640;-91
2023/04/05 07:06:22;;;;;;;17.37;14.67;;;1.00;88.30;;;;;;4994496;28;20258;-89
2023/04/05 07:08:48;;;;;;;21.10;15.63;;;1.10;88.30;;;;;;4995098;28;20729;-93
2023/04/05 07:11:14;;;;;;;16.07;14.37;;;1.30;88.40;;;;;;4993072;28;20189;-89
2023/04/05 07:13:40;;;;;;;20.57;15.33;;;1.30;88.30;;;;;;4996101;28;20182;-92
2023/04/05 07:16:06;;;;;;;28.37;17.03;;;1.30;88.60;;;;;;4994655;28;20678;-92
2023/04/05 07:18:31;;;;;;;21.80;16.60;;;1.60;88.90;;;;;;4993200;28;20170;-91
2023/04/05 07:21:02;;;;;;;21.40;17.37;;;1.80;89.20;;;;;;4993512;28;20591;-91
2023/04/05 07:23:29;;;;;;;18.83;15.87;;;2.00;89.50;;;;;;4994027;28;20188;-91
2023/04/05 07:26:03;;;;;;;21.00;17.07;;;2.30;89.90;;;;;;4994039;28;20197;-90
2023/04/05 07:28:31;;;;;;;20.10;16.93;;;2.40;90.00;;;;;;4993734;28;20180;-91
2023/04/05 07:30:57;;;;;;;26.27;18.27;;;2.60;90.10;;;;;;4993532;28;20732;-90
2023/04/05 07:33:22;;;;;;;25.60;18.40;;;2.80;90.20;;;;;;4993488;28;20257;-90
2023/04/05 07:35:53;;;;;;;25.77;17.53;;;2.90;90.10;;;;;;4993552;28;20292;-90
2023/04/05 07:38:21;;;;;;;23.57;16.53;;;2.90;89.80;;;;;;4993709;28;20201;-92
2023/04/05 07:40:50;;;;;;;19.13;15.10;;;3.00;89.60;;;;;;4994018;28;20170;-90
2023/04/05 07:43:17;;;;;;;21.57;15.23;;;3.10;89.10;;;;;;4992085;28;20189;-90
2023/04/05 07:45:43;;;;;;;22.60;16.67;;;2.70;88.60;;;;;;4993312;28;20284;-89
2023/04/05 07:48:09;;;;;;;26.37;16.50;;;2.60;88.60;;;;;;4993271;28;20632;-89
2023/04/05 07:50:35;;;;;;;24.40;16.07;;;2.60;88.70;;;;;;4993277;28;20177;-88
2023/04/05 07:53:01;;;;;;;22.67;16.33;;;2.70;88.70;;;;;;4993342;28;20177;-89
2023/04/05 07:55:26;;;;;;;23.23;16.10;;;2.70;88.50;;;;;;4992755;28;20206;-88
2023/04/05 07:57:52;;;;;;;17.30;15.17;;;2.60;88.30;;;;;;4994463;28;20177;-91
2023/04/05 08:00:19;;;;;;;30.60;16.37;;;2.60;88.10;;;;;;4997760;28;20174;-91
2023/04/05 08:02:45;;;;;;;24.00;15.17;;;2.60;88.00;;;;;;4997069;28;20170;-92
2023/04/05 08:05:10;;;;;;;25.97;15.93;;;2.80;88.00;;;;;;4995855;28;20625;-91
2023/04/05 08:07:36;;;;;;;28.13;16.10;;;2.90;88.00;;;;;;4996848;28;20178;-90
2023/04/05 08:10:03;;;;;;;22.80;15.40;;;3.00;87.60;;;;;;4996785;28;20186;-91
2023/04/05 08:12:30;;;;;;;24.87;16.27;;;3.20;87.20;;;;;;4995712;28;20182;-90
2023/04/05 08:14:56;;;;;;;24.77;15.50;;;3.20;86.80;;;;;;4996714;28;20236;-90
2023/04/05 08:17:25;;;;;;;23.80;15.20;;;3.20;86.20;;;;;;4997063;28;20181;-90
2023/04/05 08:19:52;;;;;;;20.03;15.83;;;3.30;85.90;;;;;;4996385;28;20170;-88
2023/04/05 08:22:17;;;;;;;18.63;15.40;;;3.30;85.70;;;;;;4996454;28;20177;-90
2023/04/05 08:24:43;;;;;;;20.77;15.93;;;3.30;85.10;;;;;;4996382;28;20186;-90
2023/04/05 08:27:09;;;;;;;19.03;15.57;;;3.40;84.90;;;;;;4996513;28;20264;-91
2023/04/05 08:29:35;;;;;;;24.07;15.07;;;3.50;84.90;;;;;;4994973;28;20174;-90
2023/04/05 08:32:00;;;;;;;18.93;15.43;;;3.50;84.50;;;;;;4996210;28;20253;-90
2023/04/05 08:34:26;;;;;;;19.47;16.17;;;3.60;84.40;;;;;;4996629;28;20664;-92
2023/04/05 08:36:58;;;;;;;18.37;15.17;;;3.80;84.20;;;;;;4999416;28;20178;-93
2023/04/05 08:39:24;;;;;;;20.13;15.10;;;3.90;83.90;;;;;;5002075;28;20178;-92
2023/04/05 08:42:13;;;;;;;19.23;15.37;;;4.00;83.90;;;;;;4999755;28;20684;-91
2023/04/05 08:44:40;;;;;;;19.40;15.13;;;4.30;83.80;;;;;;4997248;28;20283;-91
2023/04/05 08:47:09;;;;;;;19.93;15.90;;;4.40;83.10;;;;;;4998860;28;20176;-92
2023/04/05 08:49:35;;;;;;;24.53;14.93;;;4.40;81.90;;;;;;4996546;28;20234;-92
2023/04/05 08:52:02;;;;;;;17.67;13.97;;;4.70;82.30;;;;;;4995779;28;20176;-91
2023/04/05 08:54:27;;;;;;;20.10;15.03;;;4.70;81.30;;;;;;4994622;28;20230;-91
2023/04/05 08:56:54;;;;;;;16.73;15.03;;;4.80;81.00;;;;;;4994746;28;20219;-90
2023/04/05 08:59:21;;;;;;;19.17;14.83;;;4.90;80.30;;;;;;4995785;28;20179;-90
2023/04/05 09:01:49;;;;;;;16.90;15.13;;;5.00;80.30;;;;;;4998126;28;20252;-91
2023/04/05 09:04:18;;;;;;;16.50;14.57;;;5.10;79.60;;;;;;4994991;28;20311;-91
2023/04/05 09:06:44;;;;;;;18.13;15.90;;;5.40;79.50;;;;;;4996415;28;20556;-90
2023/04/05 09:09:10;;;;;;;15.67;14.07;;;5.80;76.90;;;;;;4995394;28;20546;-90
2023/04/05 09:11:37;;;;;;;17.47;15.87;;;6.00;74.90;;;;;;4995974;28;20667;-91
2023/04/05 09:14:04;;;;;;;18.17;16.40;;;6.20;71.50;;;;;;4997293;28;20181;-90
2023/04/05 09:16:37;;;;;;;18.37;16.77;;;6.50;71.40;;;;;;4996160;28;20194;-90
2023/04/05 09:19:02;;;;;;;20.87;18.83;;;6.60;68.70;;;;;;4994315;28;20209;-90
2023/04/05 09:21:30;;;;;;;18.77;17.17;;;6.70;67.30;;;;;;4994663;28;20221;-90
2023/04/05 09:23:56;;;;;;;19.63;18.03;;;6.90;67.80;;;;;;4995837;28;20305;-90
2023/04/05 09:26:23;;;;;;;20.97;19.17;;;6.90;65.40;;;;;;4994009;28;20535;-90
2023/04/05 09:28:49;;;;;;;21.47;19.57;;;7.00;64.40;;;;;;4995516;28;20186;-91
2023/04/05 09:31:32;;;;;;;22.00;20.03;;;7.00;63.20;;;;;;4998719;28;20189;-90
2023/04/05 09:34:01;;;;;;;20.60;18.80;;;7.20;64.00;;;;;;5001121;28;20807;-90
2023/04/05 09:36:27;;;;;;;18.77;17.33;;;7.40;63.60;;;;;;5001303;28;20202;-90
2023/04/05 09:39:02;;;;;;;21.00;18.43;;;7.60;62.60;;;;;;4994006;28;20185;-90
2023/04/05 09:41:28;;;;;;;17.30;15.80;;;7.90;63.30;;;;;;4995049;28;20274;-89
2023/04/05 09:43:53;;;;;;;17.90;16.37;;;7.90;60.10;;;;;;4995263;28;20169;-90
2023/04/05 09:46:33;;;;;;;17.50;16.00;;;8.00;59.60;;;;;;4994852;28;20174;-89
2023/04/05 09:49:00;;;;;;;18.67;17.10;;;8.30;62.20;;;;;;4995039;28;20621;-88
2023/04/05 09:51:37;;;;;;;18.97;17.17;;;8.60;61.80;;;;;;4994665;28;20178;-89
2023/04/05 09:54:08;;;;;;;18.90;17.30;;;8.80;60.70;;;;;;4994833;28;20173;-90
2023/04/05 09:56:39;;;;;;;19.30;17.70;;;8.70;60.10;;;;;;4994669;28;20202;-90
2023/04/05 09:59:10;;;;;;;19.40;17.90;;;8.60;58.30;;;;;;4993422;28;20174;-89
2023/04/05 10:01:42;;;;;;;19.20;17.53;;;8.80;57.90;;;;;;4993248;28;20197;-90
2023/04/05 10:04:08;;;;;;;19.10;17.30;;;9.10;57.50;;;;;;4993309;28;20216;-89
2023/04/05 10:06:42;;;;;;;18.83;17.33;;;9.30;58.10;;;;;;4994635;28;20636;-90
2023/04/05 10:09:10;;;;;;;20.03;17.13;;;9.30;55.00;;;;;;4994489;28;20272;-89
2023/04/05 10:11:37;;;;;;;18.90;17.50;;;9.70;57.40;;;;;;4993004;28;20209;-91
2023/04/05 10:14:05;;;;;;;18.97;17.27;;;9.60;51.10;;;;;;4992996;28;20228;-90
2023/04/05 10:16:40;;;;;;;19.60;18.00;;;9.60;53.60;;;;;;4994488;28;20194;-90
2023/04/05 10:19:14;;;;;;;19.30;17.70;;;9.80;51.60;;;;;;4994264;28;20189;-89
2023/04/05 10:21:41;;;;;;;20.20;18.60;;;9.80;52.70;;;;;;4993505;28;20213;-90
2023/04/05 10:24:19;;;;;;;21.93;19.93;;;9.50;54.20;;;;;;4992929;28;20257;-90
2023/04/05 10:26:54;;;;;;;20.13;18.43;;;9.90;56.50;;;;;;4992901;28;20197;-90
2023/04/05 10:29:27;;;;;;;21.43;19.37;;;10.20;55.80;;;;;;4994137;28;20245;-90
2023/04/05 10:32:17;;;;;;;21.03;19.30;;;10.00;53.50;;;;;;4994761;28;20162;-89
2023/04/05 10:35:15;;;;;;;20.57;18.87;;;9.20;54.20;;;;;;4993611;28;20230;-88
2023/04/05 10:38:16;;;;;;;20.97;19.17;;;9.70;56.00;;;;;;4969874;28;20182;-89
2023/04/05 10:40:47;;;;;;;20.40;18.70;;;9.90;51.70;;;;;;4993246;28;20240;-88
2023/04/05 10:43:20;;;;;;;20.03;18.33;;;9.80;52.00;;;;;;4992909;28;20170;-88
2023/04/05 10:45:48;;;;;;;19.20;17.67;;;9.90;53.30;;;;;;4994307;28;20221;-88
2023/04/05 10:48:42;;;;;;;19.17;17.67;;;9.90;52.30;;;;;;4993831;28;20170;-88
2023/04/05 10:51:10;;;;;;;20.17;18.47;;;9.90;54.20;;;;;;4993735;28;20194;-88
2023/04/05 10:53:36;;;;;;;19.83;17.97;;;9.60;52.40;;;;;;4993685;28;20186;-89
2023/04/05 10:56:02;;;;;;;19.03;17.43;;;9.70;53.00;;;;;;4993847;28;20206;-88
2023/04/05 10:58:29;;;;;;;19.10;17.50;;;9.70;53.60;;;;;;4993723;28;20174;-90
2023/04/05 11:00:56;;;;;;;19.30;17.70;;;9.70;53.20;;;;;;4993830;28;20176;-90
2023/04/05 11:03:43;;;;;;;18.67;17.17;;;9.80;53.60;;;;;;4993818;28;20226;-90
2023/04/05 11:06:32;;;;;;;20.40;18.73;;;9.90;54.00;;;;;;4993561;28;20194;-88
2023/04/05 11:09:08;;;;;;;18.80;17.20;;;9.80;52.80;;;;;;4986156;28;20186;-87
2023/04/05 11:11:48;;;;;;;18.60;16.80;;;9.90;53.20;;;;;;4992892;28;20264;-87
2023/04/05 11:14:25;;;;;;;17.97;16.53;;;9.50;52.10;;;;;;4992858;28;20248;-88
2023/04/05 11:16:58;;;;;;;17.77;16.47;;;8.90;52.30;;;;;;4992505;28;20276;-88
2023/04/05 11:19:42;;;;;;;18.67;17.17;;;9.00;53.40;;;;;;4993193;28;20197;-88
2023/04/05 11:22:15;;;;;;;18.90;17.30;;;9.50;55.20;;;;;;4993328;28;20225;-87
2023/04/05 11:24:56;;;;;;;18.60;17.00;;;9.40;55.30;;;;;;4992325;28;20190;-88
2023/04/05 11:27:26;;;;;;;18.93;17.33;;;9.80;54.70;;;;;;4993517;28;20182;-88
2023/04/05 11:29:53;;;;;;;17.37;15.97;;;9.90;53.80;;;;;;4993535;28;20166;-89
2023/04/05 11:32:19;;;;;;;18.80;16.90;;;9.80;53.50;;;;;;4992889;28;20185;-90
2023/04/05 11:35:03;;;;;;;20.03;17.87;;;9.40;54.80;;;;;;4996032;28;20190;-90
2023/04/05 11:38:00;;;;;;;19.43;17.70;;;9.20;55.40;;;;;;4996196;28;20198;-90
2023/04/05 11:40:36;;;;;;;20.50;18.33;;;8.90;56.00;;;;;;4995985;28;20174;-90
2023/04/05 11:43:08;;;;;;;20.03;18.03;;;8.80;56.70;;;;;;4997465;28;20249;-90
2023/04/05 11:45:36;;;;;;;21.57;17.47;;;8.90;56.90;;;;;;4995918;28;20200;-90
2023/04/05 11:48:10;;;;;;;19.13;17.40;;;8.90;55.90;;;;;;4995843;28;20182;-90
2023/04/05 11:50:37;;;;;;;18.50;16.83;;;9.30;56.60;;;;;;4995873;28;20240;-90
2023/04/05 11:53:16;;;;;;;21.83;17.47;;;9.00;54.50;;;;;;4996956;28;20174;-90
2023/04/05 11:55:45;;;;;;;19.63;17.77;;;9.10;56.30;;;;;;4995661;28;20241;-88
2023/04/05 11:58:30;;;;;;;19.23;17.63;;;9.40;55.70;;;;;;4997171;28;20249;-90
2023/04/05 12:01:01;;;;;;;19.83;18.13;;;9.60;54.70;;;;;;4995418;28;20652;-91
2023/04/05 12:03:27;;;;;;;19.90;18.17;;;9.60;54.40;;;;;;4995775;28;20185;-90
2023/04/05 12:05:55;;;;;;;19.10;17.60;;;9.70;53.60;;;;;;4995854;28;20205;-90
2023/04/05 12:08:22;;;;;;;18.73;17.13;;;9.80;52.90;;;;;;4995704;28;20236;-89
2023/04/05 12:11:00;;;;;;;18.27;16.73;;;9.60;53.20;;;;;;4996304;28;20189;-89
2023/04/05 12:13:31;;;;;;;18.67;17.17;;;9.90;54.10;;;;;;4995536;28;20178;-90
2023/04/05 12:15:59;;;;;;;17.73;16.13;;;10.40;52.90;;;;;;4996584;28;20208;-90
2023/04/05 12:18:25;;;;;;;18.13;16.83;;;10.80;53.00;;;;;;4996687;28;20170;-90
2023/04/05 12:20:52;;;;;;;17.83;16.13;;;11.20;50.80;;;;;;4995579;28;20265;-90
2023/04/05 12:23:20;;;;;;;18.17;16.77;;;11.10;47.10;;;;;;4996706;28;20258;-90
2023/04/05 12:25:47;;;;;;;18.90;17.50;;;10.90;48.00;;;;;;4995356;28;20198;-89
2023/04/05 12:28:12;;;;;;;17.87;16.50;;;10.20;49.40;;;;;;4995123;28;20205;-90
2023/04/05 12:30:52;;;;;;;17.63;16.33;;;10.40;49.80;;;;;;4995430;28;20186;-90
2023/04/05 12:33:32;;;;;;;18.07;16.73;;;11.00;49.10;;;;;;4995198;28;20228;-90
2023/04/05 12:36:03;;;;;;;16.80;15.60;;;11.10;46.50;;;;;;4994941;28;20769;-90
2023/04/05 12:38:29;;;;;;;18.83;17.43;;;11.10;46.90;;;;;;4995679;28;20265;-90
2023/04/05 12:41:00;;;;;;;19.30;17.80;;;11.10;46.60;;;;;;4995065;28;20225;-90
2023/04/05 12:43:25;;;;;;;19.13;17.63;;;11.30;49.40;;;;;;4995155;28;20233;-89
2023/04/05 12:45:55;;;;;;;19.87;17.97;;;11.20;49.60;;;;;;4995197;28;20763;-90